createdAt,value
2022-08-03T00:02:52.695Z,85.78
2022-08-03T00:07:59.203Z,85.88
2022-08-03T00:13:06.093Z,85.97
2022-08-03T00:18:12.118Z,86.02
2022-08-03T00:23:17.996Z,86.09
2022-08-03T00:28:24.097Z,86.44
2022-08-03T00:33:58.333Z,86.39
2022-08-03T00:39:00.330Z,86.28
2022-08-03T00:44:06.756Z,86.18
2022-08-03T00:49:13.069Z,86.28
2022-08-03T00:54:20.194Z,86.23
2022-08-03T00:59:26.116Z,86.38
2022-08-03T01:04:32.046Z,86.60
2022-08-03T01:09:46.600Z,86.71
2022-08-03T01:14:58.594Z,86.93
2022-08-03T01:20:08.057Z,87.11
2022-08-03T01:25:24.795Z,86.99
2022-08-03T01:30:33.714Z,86.94
2022-08-03T01:35:47.118Z,87.24
2022-08-03T01:40:56.269Z,87.60
2022-08-03T01:46:03.215Z,87.66
2022-08-03T01:51:10.985Z,88.47
2022-08-03T01:56:19.666Z,88.69
2022-08-03T02:01:27.390Z,88.70
2022-08-03T02:07:01.711Z,88.73
2022-08-03T02:12:11.696Z,88.57
2022-08-03T02:17:39.335Z,88.63
2022-08-03T02:22:46.572Z,88.40
2022-08-03T02:27:55.578Z,88.19
2022-08-03T02:33:03.126Z,88.23
2022-08-03T02:38:11.728Z,88.54
2022-08-03T02:43:22.018Z,88.59
2022-08-03T02:48:32.771Z,88.77
2022-08-03T02:53:39.425Z,89.04
2022-08-03T02:58:47.656Z,89.29
2022-08-03T03:03:54.937Z,89.58
2022-08-03T03:09:02.716Z,89.72
2022-08-03T03:14:10.206Z,89.67
2022-08-03T03:19:17.744Z,89.73
2022-08-03T03:24:24.178Z,89.77
2022-08-03T03:29:30.500Z,89.90
2022-08-03T03:34:45.943Z,90.15
2022-08-03T03:39:53.068Z,90.30
2022-08-03T03:44:59.475Z,90.23
2022-08-03T03:50:06.945Z,90.44
2022-08-03T03:55:18.028Z,90.27
2022-08-03T04:00:25.011Z,89.71
2022-08-03T04:05:50.054Z,89.26
2022-08-03T04:11:07.470Z,88.45
2022-08-03T04:16:15.820Z,88.05
2022-08-03T04:21:24.206Z,87.67
2022-08-03T04:26:34.427Z,87.86
2022-08-03T04:31:42.103Z,88.20
2022-08-03T04:36:52.820Z,87.11
2022-08-03T04:42:08.407Z,85.53
2022-08-03T04:47:15.810Z,84.38
2022-08-03T04:52:22.053Z,82.60
2022-08-03T04:57:28.208Z,80.21
2022-08-03T05:02:35.074Z,76.39
2022-08-03T05:07:41.010Z,71.66
2022-08-03T05:12:51.670Z,66.55
2022-08-03T05:17:57.639Z,63.31
2022-08-03T05:23:04.113Z,62.10
2022-08-03T05:28:09.878Z,62.54
2022-08-03T05:33:16.133Z,63.63
2022-08-03T05:38:28.029Z,63.65
2022-08-03T05:43:39.575Z,63.96
2022-08-03T05:48:45.566Z,64.21
2022-08-03T05:53:52.321Z,63.27
2022-08-03T05:59:07.243Z,63.84
2022-08-03T06:04:22.727Z,65.44
2022-08-03T06:10:34.002Z,66.94
2022-08-03T06:14:56.040Z,67.49
2022-08-03T06:20:02.483Z,67.00
2022-08-03T06:25:12.794Z,63.82
2022-08-03T06:30:21.238Z,61.47
2022-08-03T06:35:28.152Z,60.95
2022-08-03T06:40:40.047Z,61.08
2022-08-03T06:45:47.691Z,62.39
2022-08-03T06:50:53.598Z,63.20
2022-08-03T06:55:59.635Z,64.49
2022-08-03T07:01:05.723Z,65.04
2022-08-03T07:06:11.816Z,66.60
2022-08-03T07:11:17.754Z,67.31
2022-08-03T07:16:23.717Z,67.44
2022-08-03T07:21:29.659Z,67.21
2022-08-03T07:26:35.499Z,66.70
2022-08-03T07:31:42.236Z,64.60
2022-08-03T07:36:48.060Z,60.04
2022-08-03T07:41:53.975Z,59.51
2022-08-03T07:47:03.227Z,60.12
2022-08-03T07:52:28.598Z,60.84
2022-08-03T07:57:35.653Z,60.42
2022-08-03T08:02:41.888Z,56.24
2022-08-03T08:07:51.072Z,53.12
2022-08-03T08:12:57.931Z,51.43
2022-08-03T08:18:04.116Z,49.90
2022-08-03T08:23:37.644Z,45.15
2022-08-03T08:28:36.368Z,40.13
2022-08-03T08:34:03.087Z,35.16
2022-08-03T08:39:08.293Z,32.79
2022-08-03T08:44:14.469Z,30.31
2022-08-03T08:49:28.080Z,28.79
2022-08-03T08:54:35.140Z,28.67
2022-08-03T08:59:47.754Z,27.44
2022-08-03T09:04:55.634Z,26.86
2022-08-03T09:10:11.789Z,25.06
2022-08-03T09:15:22.461Z,24.32
2022-08-03T09:20:30.821Z,24.20
2022-08-03T09:25:39.057Z,24.84
2022-08-03T09:30:58.192Z,24.45
2022-08-03T09:36:04.590Z,25.13
2022-08-03T09:41:19.913Z,24.85
2022-08-03T09:46:25.826Z,24.01
2022-08-03T09:51:33.283Z,24.17
2022-08-03T09:56:58.772Z,24.13
2022-08-03T10:02:04.957Z,23.59
2022-08-03T10:07:12.194Z,23.21
2022-08-03T10:12:18.263Z,23.20
2022-08-03T10:17:24.603Z,25.31
2022-08-03T10:22:34.047Z,25.72
2022-08-03T10:27:41.514Z,25.03
2022-08-03T10:32:52.558Z,25.70
2022-08-03T10:38:02.075Z,26.25
2022-08-03T10:43:13.279Z,24.82
2022-08-03T10:48:20.794Z,25.80
2022-08-03T10:53:40.451Z,25.22
2022-08-03T10:58:57.393Z,25.65
2022-08-03T11:04:21.633Z,27.47
2022-08-03T11:09:40.782Z,29.51
2022-08-03T11:14:50.151Z,30.77
2022-08-03T11:19:56.822Z,31.00
2022-08-03T11:25:05.262Z,30.71
2022-08-03T11:30:27.500Z,31.39
2022-08-03T11:35:43.827Z,29.41
2022-08-03T11:40:51.450Z,30.06
2022-08-03T11:46:02.339Z,27.83
2022-08-03T11:51:20.259Z,30.36
2022-08-03T11:56:26.732Z,29.84
2022-08-03T12:01:32.980Z,30.40
2022-08-03T12:06:55.451Z,30.97
2022-08-03T12:12:01.639Z,33.32
2022-08-03T12:17:07.495Z,30.94
2022-08-03T12:22:16.829Z,33.66
2022-08-03T12:27:29.757Z,32.74
2022-08-03T12:32:35.876Z,32.24
2022-08-03T12:37:48.323Z,32.77
2022-08-03T12:42:54.505Z,34.63
2022-08-03T12:48:02.325Z,33.55
2022-08-03T12:53:10.606Z,32.44
2022-08-03T12:58:33.799Z,32.22
2022-08-03T13:03:49.588Z,32.79
2022-08-03T13:09:07.801Z,31.58
2022-08-03T13:14:19.787Z,32.00
2022-08-03T13:19:26.266Z,33.16
2022-08-03T13:24:33.454Z,33.50
2022-08-03T13:29:39.935Z,33.45
2022-08-03T13:34:45.971Z,32.06
2022-08-03T13:39:58.025Z,31.53
2022-08-03T13:45:08.865Z,31.92
2022-08-03T13:50:15.347Z,32.04
2022-08-03T13:55:21.308Z,32.61
2022-08-03T14:00:29.483Z,33.53
2022-08-03T14:05:37.141Z,33.42
2022-08-03T14:10:44.921Z,33.29
2022-08-03T14:15:51.980Z,32.05
2022-08-03T14:21:03.411Z,32.41
2022-08-03T14:26:12.077Z,33.35
2022-08-03T14:32:09.519Z,34.08
2022-08-03T14:36:44.309Z,33.02
2022-08-03T14:41:50.170Z,33.23
2022-08-03T14:46:56.034Z,33.16
2022-08-03T14:52:02.689Z,33.23
2022-08-03T14:57:08.555Z,33.55
2022-08-03T15:02:23.339Z,34.75
2022-08-03T15:07:30.033Z,35.37
2022-08-03T15:12:36.174Z,35.35
2022-08-03T15:17:42.862Z,36.01
2022-08-03T15:22:48.851Z,35.73
2022-08-03T15:28:03.733Z,35.59
2022-08-03T15:33:10.934Z,37.03
2022-08-03T15:38:17.673Z,37.56
2022-08-03T15:43:23.833Z,38.49
2022-08-03T15:48:29.867Z,37.43
2022-08-03T15:53:36.528Z,37.57
2022-08-03T15:59:09.241Z,37.42
2022-08-03T16:04:08.408Z,37.77
2022-08-03T16:09:23.102Z,38.55
2022-08-03T16:14:51.277Z,39.23
2022-08-03T16:19:58.495Z,39.37
2022-08-03T16:25:04.830Z,38.99
2022-08-03T16:30:20.064Z,38.57
2022-08-03T16:35:26.090Z,38.76
2022-08-03T16:40:32.783Z,38.99
2022-08-03T16:45:38.921Z,39.42
2022-08-03T16:50:45.251Z,39.47
2022-08-03T16:55:54.334Z,39.15
2022-08-03T17:01:00.408Z,39.26
2022-08-03T17:06:17.515Z,40.05
2022-08-03T17:11:28.075Z,40.27
2022-08-03T17:16:36.057Z,41.45
2022-08-03T17:21:51.539Z,41.72
2022-08-03T17:27:00.680Z,42.44
2022-08-03T17:32:10.656Z,43.26
2022-08-03T17:37:49.840Z,44.55
2022-08-03T17:42:50.532Z,47.32
2022-08-03T17:47:57.160Z,48.76
2022-08-03T17:53:15.681Z,51.26
2022-08-03T17:58:43.899Z,52.54
2022-08-03T18:03:58.657Z,54.46
2022-08-03T18:10:05.824Z,55.75
2022-08-03T18:14:43.286Z,57.80
2022-08-03T18:20:11.684Z,59.01
2022-08-03T18:25:38.295Z,59.92
2022-08-03T18:30:53.451Z,61.03
2022-08-03T18:36:04.049Z,61.72
2022-08-03T18:41:15.146Z,62.74
2022-08-03T18:46:34.265Z,63.40
2022-08-03T18:51:46.994Z,64.17
2022-08-03T18:56:55.953Z,65.07
2022-08-03T19:02:09.130Z,65.91
2022-08-03T19:07:24.729Z,66.58
2022-08-03T19:12:39.971Z,67.06
2022-08-03T19:17:53.195Z,68.00
2022-08-03T19:23:00.988Z,68.49
2022-08-03T19:28:08.874Z,69.21
2022-08-03T19:33:15.594Z,70.02
2022-08-03T19:38:29.341Z,70.59
2022-08-03T19:43:52.809Z,71.03
2022-08-03T19:49:04.625Z,71.36
2022-08-03T19:54:29.339Z,72.02
2022-08-03T19:59:50.392Z,72.38
2022-08-03T20:04:57.797Z,72.78
2022-08-03T20:10:09.233Z,72.94
2022-08-03T20:15:18.166Z,73.50
2022-08-03T20:20:32.223Z,73.71
2022-08-03T20:25:57.198Z,73.95
2022-08-03T20:31:05.422Z,74.29
2022-08-03T20:36:13.047Z,74.67
2022-08-03T20:41:21.890Z,74.88
2022-08-03T20:46:32.716Z,75.38
2022-08-03T20:51:49.646Z,75.67
2022-08-03T20:57:00.354Z,75.86
2022-08-03T21:02:06.608Z,76.04
2022-08-03T21:07:19.206Z,76.38
2022-08-03T21:12:35.683Z,76.56
2022-08-03T21:17:47.477Z,76.61
2022-08-03T21:22:56.202Z,76.83
2022-08-03T21:28:05.911Z,76.89
2022-08-03T21:33:12.177Z,76.80
2022-08-03T21:38:29.924Z,76.14
2022-08-03T21:43:36.552Z,75.79
2022-08-03T21:48:44.822Z,75.90
2022-08-03T21:54:00.379Z,75.89
2022-08-03T21:59:17.367Z,75.80
2022-08-03T22:04:50.831Z,76.09
2022-08-03T22:09:52.239Z,76.05
2022-08-03T22:15:01.956Z,76.45
2022-08-03T22:20:11.102Z,76.47
2022-08-03T22:25:18.196Z,76.84
2022-08-03T22:30:24.139Z,77.14
2022-08-03T22:35:31.565Z,77.25
2022-08-03T22:40:39.102Z,77.06
2022-08-03T22:46:09.831Z,76.90
2022-08-03T22:51:15.366Z,76.61
2022-08-03T22:56:22.126Z,76.02
2022-08-03T23:01:32.611Z,75.91
2022-08-03T23:06:41.357Z,75.57
2022-08-03T23:11:48.382Z,75.69
2022-08-03T23:16:56.006Z,75.60
2022-08-03T23:22:04.084Z,75.38
2022-08-03T23:27:11.793Z,75.64
2022-08-03T23:32:21.423Z,76.09
2022-08-03T23:37:28.246Z,76.72
2022-08-03T23:42:35.034Z,76.93
2022-08-03T23:47:46.968Z,77.67
2022-08-03T23:53:08.300Z,78.23
2022-08-03T23:58:25.029Z,78.50
